Time;durP1;ratioP1;P1;durP2;ratioP2;P2;SDS_P1;SDS_P2;PMS_P1;PMS_P2;Temp;Humidity;BMP_temperature;BMP_pressure;BME280_temperature;BME280_humidity;BME280_pressure;Samples;Min_cycle;Max_cycle;Signal;HPM_P1;HPM_P2
2024/03/04 00:09:08;;;;;;;2.30;0.50;;;2.40;99.90;;;;;;20880157;28;20075;-35
2024/03/04 00:19:10;;;;;;;1.60;1.00;;;2.50;99.90;;;;;;20880561;28;21684;-38
2024/03/04 00:29:12;;;;;;;47.53;8.18;;;2.50;99.90;;;;;;20860947;28;20694;-37
2024/03/04 00:39:14;;;;;;;1.88;0.75;;;2.50;99.90;;;;;;20874326;28;20220;-36
2024/03/04 00:49:16;;;;;;;90.15;12.52;;;2.50;99.90;;;;;;20874435;28;20731;-41
2024/03/04 00:59:18;;;;;;;3.53;1.10;;;2.60;99.90;;;;;;20878006;28;20740;-36
2024/03/04 01:09:19;;;;;;;1.95;1.13;;;2.60;99.90;;;;;;20873071;28;20224;-35
2024/03/04 01:19:23;;;;;;;3.42;1.20;;;2.50;99.90;;;;;;20869809;28;20118;-35
2024/03/04 01:29:26;;;;;;;0.93;0.70;;;2.40;99.90;;;;;;20868661;28;20122;-35
2024/03/04 01:39:27;;;;;;;1.15;0.60;;;2.50;99.90;;;;;;20873664;28;21914;-35
2024/03/04 01:49:30;;;;;;;1.73;0.60;;;2.50;99.90;;;;;;20872325;28;20177;-36
2024/03/04 01:59:38;;;;;;;0.70;0.43;;;2.20;99.90;;;;;;20872279;28;20685;-43
2024/03/04 02:09:45;;;;;;;1.20;0.70;;;2.10;99.90;;;;;;20867075;28;20146;-35
2024/03/04 02:19:47;;;;;;;0.82;0.50;;;2.20;99.90;;;;;;20865076;28;20237;-41
2024/03/04 02:29:49;;;;;;;0.77;0.43;;;2.20;99.90;;;;;;20868151;28;21777;-37
2024/03/04 02:39:56;;;;;;;1.27;0.70;;;2.20;99.90;;;;;;20866618;28;20170;-35
2024/03/04 02:49:57;;;;;;;1.88;1.73;;;2.30;99.90;;;;;;20867010;28;20145;-34
2024/03/04 02:59:59;;;;;;;0.52;0.43;;;2.20;99.90;;;;;;20863835;28;20687;-35
2024/03/04 03:10:02;;;;;;;1.38;0.30;;;2.00;99.90;;;;;;20849365;28;20195;-40
2024/03/04 03:20:16;;;;;;;390.05;36.00;;;1.80;99.90;;;;;;20866183;28;20966;-43
2024/03/04 03:30:18;;;;;;;4.88;3.35;;;1.80;99.90;;;;;;20864155;28;20119;-34
2024/03/04 03:40:20;;;;;;;0.35;0.20;;;1.90;99.90;;;;;;20847373;28;20083;-37
2024/03/04 03:50:22;;;;;;;0.60;0.30;;;2.00;99.90;;;;;;20868678;28;20110;-37
2024/03/04 04:00:24;;;;;;;2.40;1.08;;;2.10;99.90;;;;;;20866184;28;20158;-34
2024/03/04 04:10:26;;;;;;;1.92;1.45;;;2.10;99.90;;;;;;20865751;28;20096;-36
2024/03/04 04:20:28;;;;;;;185.13;19.13;;;2.00;99.90;;;;;;20875799;28;20158;-33
2024/03/04 04:30:31;;;;;;;1.67;1.10;;;2.10;99.90;;;;;;20861453;28;20191;-42
2024/03/04 04:40:33;;;;;;;2.10;1.50;;;2.20;99.90;;;;;;20878883;28;20138;-33
2024/03/04 04:50:35;;;;;;;2.13;1.38;;;2.20;99.90;;;;;;20875036;28;20122;-34
2024/03/04 05:00:36;;;;;;;1.70;0.82;;;2.20;99.90;;;;;;20876971;28;20138;-38
2024/03/04 05:10:39;;;;;;;2.63;1.40;;;2.20;99.90;;;;;;20871919;28;20565;-36
2024/03/04 05:20:41;;;;;;;2.95;1.60;;;2.30;99.90;;;;;;20868034;28;20170;-39
2024/03/04 05:30:43;;;;;;;4.22;1.55;;;2.20;99.90;;;;;;20849993;28;20233;-39
2024/03/04 05:40:46;;;;;;;3.60;2.58;;;2.40;99.90;;;;;;20873090;28;21231;-34
2024/03/04 05:50:48;;;;;;;6.53;3.85;;;2.40;99.90;;;;;;20872264;28;20086;-35
2024/03/04 06:00:55;;;;;;;20.35;5.05;;;2.30;99.90;;;;;;20870927;28;20079;-41
2024/03/04 06:10:57;;;;;;;2.47;1.08;;;2.20;99.90;;;;;;20866762;28;21253;-36
2024/03/04 06:20:59;;;;;;;3.13;1.77;;;2.20;99.90;;;;;;20867084;28;20162;-43
2024/03/04 06:31:01;;;;;;;18.55;8.73;;;2.20;99.90;;;;;;20862435;28;21330;-41
2024/03/04 06:41:05;;;;;;;7.65;4.60;;;2.10;99.90;;;;;;20858974;28;20174;-35
2024/03/04 06:51:07;;;;;;;3.08;1.58;;;2.10;99.90;;;;;;20860554;28;20108;-35
2024/03/04 07:01:09;;;;;;;9.30;5.60;;;2.20;99.90;;;;;;20863955;28;20120;-37
2024/03/04 07:11:15;;;;;;;0.77;0.68;;;2.10;99.90;;;;;;20860805;28;20096;-35
2024/03/04 07:21:20;;;;;;;0.20;0.10;;;2.10;99.90;;;;;;20859070;28;20130;-34
2024/03/04 07:31:21;;;;;;;1.25;1.23;;;2.10;99.90;;;;;;20860749;28;20119;-34
2024/03/04 07:41:25;;;;;;;0.10;0.10;;;2.20;99.90;;;;;;20853273;28;20153;-35
2024/03/04 07:51:27;;;;;;;2.30;2.15;;;2.20;99.90;;;;;;20869279;28;20035;-40
2024/03/04 08:01:29;;;;;;;0.08;0.00;;;2.00;99.90;;;;;;20877382;28;20184;-36
2024/03/04 08:11:31;;;;;;;1.58;0.65;;;1.90;99.90;;;;;;20875582;28;20969;-34
2024/03/04 08:21:32;;;;;;;7.25;2.47;;;1.90;99.90;;;;;;20877436;28;20945;-34
2024/03/04 08:31:36;;;;;;;156.13;16.83;;;2.10;99.90;;;;;;20867176;28;20168;-34
2024/03/04 08:41:45;;;;;;;10.43;5.32;;;2.50;99.90;;;;;;20851962;28;20126;-35
2024/03/04 08:51:47;;;;;;;2.92;1.30;;;2.60;99.90;;;;;;20853971;28;20071;-35
2024/03/04 09:01:49;;;;;;;3.03;1.08;;;2.70;99.90;;;;;;20863809;28;20166;-35
2024/03/04 09:11:52;;;;;;;0.93;0.43;;;2.80;99.90;;;;;;20870047;28;20130;-35
2024/03/04 09:21:54;;;;;;;3.53;0.70;;;2.70;99.90;;;;;;20868639;28;21296;-36
2024/03/04 09:31:56;;;;;;;4.07;1.70;;;2.70;99.90;;;;;;20870979;28;20619;-34
2024/03/04 09:41:59;;;;;;;52.67;4.53;;;3.20;99.90;;;;;;20865786;28;20737;-40
2024/03/04 09:52:03;;;;;;;1.15;0.47;;;3.30;99.90;;;;;;20843566;28;20123;-40
2024/03/04 10:02:10;;;;;;;3.67;1.33;;;3.40;99.90;;;;;;20849647;28;20794;-40
2024/03/04 10:12:12;;;;;;;1.25;0.52;;;3.50;99.90;;;;;;20862624;28;20149;-41
2024/03/04 10:22:14;;;;;;;1.55;0.45;;;3.60;99.90;;;;;;20864876;28;20118;-41
2024/03/04 10:32:17;;;;;;;4.85;0.73;;;4.00;99.90;;;;;;20863725;28;20176;-39
2024/03/04 10:42:19;;;;;;;0.32;0.10;;;4.30;99.90;;;;;;20859323;28;20138;-39
2024/03/04 10:52:21;;;;;;;1.25;0.10;;;5.00;99.90;;;;;;20867007;28;20826;-41
2024/03/04 11:02:39;;;;;;;5.35;4.82;;;6.00;99.90;;;;;;20847247;28;20079;-40
2024/03/04 11:12:44;;;;;;;0.40;0.10;;;5.50;99.90;;;;;;20850225;28;20067;-41
2024/03/04 11:22:47;;;;;;;4.57;4.15;;;5.50;99.90;;;;;;20866179;28;21716;-41
2024/03/04 11:32:49;;;;;;;1.02;0.40;;;5.90;99.90;;;;;;20882692;28;21252;-40
2024/03/04 11:42:51;;;;;;;0.93;0.30;;;6.50;99.90;;;;;;20885208;28;20493;-40
2024/03/04 11:52:59;;;;;;;2.85;2.63;;;6.90;99.90;;;;;;20883742;28;20070;-41
2024/03/04 12:03:04;;;;;;;0.68;0.03;;;7.60;99.90;;;;;;20876992;28;20249;-42
2024/03/04 12:13:09;;;;;;;0.22;0.00;;;7.70;99.90;;;;;;20836512;28;21263;-41
2024/03/04 12:23:14;;;;;;;1.15;0.10;;;8.60;99.90;;;;;;20879854;28;20063;-41
2024/03/04 12:33:16;;;;;;;0.40;0.35;;;7.70;99.90;;;;;;20858784;28;20075;-40
2024/03/04 12:43:18;;;;;;;1.90;0.10;;;7.20;99.90;;;;;;20875354;28;20063;-40
2024/03/04 12:53:23;;;;;;;0.38;0.00;;;6.90;99.90;;;;;;20854061;28;20135;-40
2024/03/04 13:03:27;;;;;;;0.38;0.08;;;7.10;99.90;;;;;;20869357;28;20181;-39
2024/03/04 13:13:29;;;;;;;2.53;0.20;;;7.70;99.90;;;;;;20869072;28;20143;-40
2024/03/04 13:23:31;;;;;;;0.43;0.00;;;7.40;99.90;;;;;;20871852;28;20232;-39
2024/03/04 13:33:33;;;;;;;1.30;0.20;;;7.10;99.90;;;;;;20871808;28;20572;-39
2024/03/04 13:43:34;;;;;;;1.60;0.10;;;6.90;99.90;;;;;;20871639;28;20126;-40
2024/03/04 13:53:41;;;;;;;1.80;0.10;;;6.80;99.90;;;;;;20867872;28;20116;-42
2024/03/04 14:03:44;;;;;;;2.00;0.10;;;8.00;99.90;;;;;;20867452;28;20075;-48
2024/03/04 14:13:46;;;;;;;1.92;0.20;;;8.90;99.90;;;;;;20866263;28;20071;-40
2024/03/04 14:23:48;;;;;;;1.20;0.10;;;8.50;99.90;;;;;;20865504;28;20174;-40
2024/03/04 14:33:50;;;;;;;1.77;0.20;;;7.70;99.90;;;;;;20850226;28;20091;-41
2024/03/04 14:43:55;;;;;;;3.67;0.22;;;7.60;99.90;;;;;;20864413;28;20064;-39
2024/03/04 14:53:57;;;;;;;7.95;0.47;;;7.70;99.90;;;;;;20862389;28;20124;-40
2024/03/04 15:03:58;;;;;;;1.75;0.38;;;7.70;99.90;;;;;;20847930;28;20079;-40
2024/03/04 15:14:01;;;;;;;5.85;0.75;;;7.50;99.90;;;;;;20866579;28;20164;-40
2024/03/04 15:24:04;;;;;;;5.45;0.60;;;7.40;99.90;;;;;;20865298;28;20475;-40
2024/03/04 15:34:06;;;;;;;2.15;0.40;;;7.40;99.90;;;;;;20866332;28;20223;-42
2024/03/04 15:44:08;;;;;;;1.83;0.50;;;7.40;99.90;;;;;;20861409;28;20162;-40
2024/03/04 15:54:10;;;;;;;1.60;0.38;;;7.10;99.90;;;;;;20864281;28;20192;-40
2024/03/04 16:04:11;;;;;;;2.55;0.90;;;6.50;99.90;;;;;;20865789;28;20064;-40
2024/03/04 16:14:13;;;;;;;3.33;0.50;;;5.90;99.90;;;;;;20876698;28;20123;-40
2024/03/04 16:24:15;;;;;;;3.40;0.47;;;5.40;99.90;;;;;;20878071;28;20302;-40
2024/03/04 16:34:17;;;;;;;3.42;0.25;;;4.80;99.90;;;;;;20859013;28;20177;-39
2024/03/04 16:44:19;;;;;;;3.88;0.32;;;4.40;99.90;;;;;;20875035;28;21055;-39
2024/03/04 16:54:21;;;;;;;3.42;0.52;;;4.00;99.90;;;;;;20879443;28;21281;-39
2024/03/04 17:04:22;;;;;;;2.47;0.35;;;3.80;99.90;;;;;;20875045;28;20114;-39
2024/03/04 17:14:24;;;;;;;3.28;0.22;;;4.10;99.90;;;;;;20876476;28;20122;-39
2024/03/04 17:24:26;;;;;;;1.95;0.40;;;4.10;99.90;;;;;;20871796;28;20170;-39
2024/03/04 17:34:27;;;;;;;1.70;0.40;;;3.60;99.90;;;;;;20875864;28;20240;-40
2024/03/04 17:44:29;;;;;;;2.70;0.40;;;3.20;99.90;;;;;;20873734;28;20180;-39
2024/03/04 17:54:31;;;;;;;2.65;0.47;;;2.90;99.90;;;;;;20874731;28;21047;-40
2024/03/04 18:04:34;;;;;;;5.60;0.80;;;2.60;99.90;;;;;;20870484;28;20519;-40
2024/03/04 18:14:40;;;;;;;3.70;0.63;;;2.50;99.90;;;;;;20871348;28;20162;-41
2024/03/04 18:24:42;;;;;;;6.50;0.63;;;2.50;99.90;;;;;;20868440;28;20497;-40
2024/03/04 18:34:45;;;;;;;4.30;0.50;;;2.60;99.90;;;;;;20867989;28;20150;-41
2024/03/04 18:44:47;;;;;;;2.78;0.50;;;2.70;99.90;;;;;;20688180;28;21337;-40
2024/03/04 18:54:50;;;;;;;4.03;0.60;;;2.80;99.90;;;;;;20689675;28;20163;-40
2024/03/04 19:04:52;;;;;;;6.30;0.88;;;2.80;99.90;;;;;;20688741;28;21250;-39
2024/03/04 19:14:54;;;;;;;3.60;0.40;;;3.00;99.90;;;;;;20826572;28;20665;-40
2024/03/04 19:25:00;;;;;;;5.07;0.43;;;2.80;99.90;;;;;;20869533;28;21240;-40
2024/03/04 19:35:02;;;;;;;7.32;0.70;;;2.60;99.90;;;;;;20845004;28;20162;-39
2024/03/04 19:45:08;;;;;;;9.43;0.82;;;2.50;99.90;;;;;;20875897;28;20168;-40
2024/03/04 19:55:14;;;;;;;4.53;0.45;;;2.50;99.90;;;;;;20884452;28;20070;-39
2024/03/04 20:05:17;;;;;;;3.28;0.57;;;2.40;99.90;;;;;;20879596;28;20067;-40
2024/03/04 20:15:19;;;;;;;2.28;0.50;;;2.30;99.90;;;;;;20878003;28;20562;-40
2024/03/04 20:25:21;;;;;;;2.25;0.65;;;2.20;99.90;;;;;;20879401;28;21070;-40
2024/03/04 20:35:23;;;;;;;6.90;0.68;;;2.10;99.90;;;;;;20880003;28;21336;-40
2024/03/04 20:45:25;;;;;;;3.13;0.65;;;2.10;99.90;;;;;;20875678;28;20126;-40
2024/03/04 20:55:30;;;;;;;3.13;0.70;;;2.10;99.90;;;;;;20877921;28;21325;-40
2024/03/04 21:05:33;;;;;;;3.95;0.80;;;2.00;99.90;;;;;;20877707;28;20123;-40
2024/03/04 21:15:35;;;;;;;4.88;0.57;;;2.20;99.90;;;;;;20876797;28;20124;-40
2024/03/04 21:25:37;;;;;;;4.80;0.70;;;2.20;99.90;;;;;;20878566;28;21267;-39
2024/03/04 21:35:40;;;;;;;4.45;0.80;;;2.20;99.90;;;;;;20872651;28;20234;-43
2024/03/04 21:45:41;;;;;;;5.85;0.90;;;2.30;99.90;;;;;;20855474;28;20075;-40
2024/03/04 21:55:43;;;;;;;6.87;1.00;;;2.40;99.90;;;;;;20873235;28;20133;-40
2024/03/04 22:05:46;;;;;;;8.35;1.67;;;2.50;99.90;;;;;;20871231;28;20323;-40
2024/03/04 22:15:48;;;;;;;7.05;0.68;;;2.60;99.90;;;;;;20869240;28;20114;-40
2024/03/04 22:25:50;;;;;;;6.03;0.90;;;2.70;99.90;;;;;;20672785;28;20171;-40
2024/03/04 22:35:52;;;;;;;5.25;1.13;;;2.80;99.90;;;;;;20690634;28;20135;-40
2024/03/04 22:45:54;;;;;;;8.27;1.00;;;2.90;99.90;;;;;;20688893;28;21731;-40
2024/03/04 22:55:56;;;;;;;9.95;0.93;;;2.90;99.90;;;;;;20713204;28;20233;-40
2024/03/04 23:05:58;;;;;;;8.40;0.80;;;2.90;99.90;;;;;;20847582;28;20229;-40
2024/03/04 23:16:07;;;;;;;6.97;0.82;;;2.90;99.90;;;;;;20869115;28;20670;-39
2024/03/04 23:26:09;;;;;;;4.32;0.90;;;2.90;99.90;;;;;;20886989;28;20146;-40
2024/03/04 23:36:11;;;;;;;6.32;0.73;;;3.00;99.90;;;;;;20885094;28;20119;-40
2024/03/04 23:46:13;;;;;;;6.78;1.00;;;2.90;99.90;;;;;;20882643;28;21823;-40
2024/03/04 23:56:16;;;;;;;2.90;0.75;;;2.90;99.90;;;;;;20880790;28;20560;-40
